Time;durP1;ratioP1;P1;durP2;ratioP2;P2;SDS_P1;SDS_P2;PMS_P1;PMS_P2;Temp;Humidity;BMP_temperature;BMP_pressure;BME280_temperature;BME280_humidity;BME280_pressure;Samples;Min_cycle;Max_cycle;Signal;HPM_P1;HPM_P2
2022/09/12 03:56:33;;;;;;;5.90;4.43;;;;;;;13.20;100.00;100230.31;6657532;26;20089;-87
2022/09/12 03:59:36;;;;;;;5.93;4.40;;;;;;;13.24;100.00;100223.47;6662677;26;33869;-88
2022/09/12 04:02:39;;;;;;;6.40;4.30;;;;;;;13.32;100.00;100228.75;6663083;26;35100;-88
2022/09/12 04:05:42;;;;;;;6.32;3.92;;;;;;;13.34;100.00;100223.19;6662323;26;34099;-87
2022/09/12 04:08:49;;;;;;;6.40;4.70;;;;;;;13.44;100.00;100230.91;6641360;26;33523;-91
2022/09/12 04:11:52;;;;;;;5.78;4.20;;;;;;;13.42;100.00;100232.97;6662027;26;34207;-91
2022/09/12 04:14:54;;;;;;;6.93;4.72;;;;;;;13.35;100.00;100236.47;6642072;26;34006;-90
2022/09/12 04:17:57;;;;;;;6.90;4.25;;;;;;;13.34;100.00;100234.00;6663113;26;34021;-88
2022/09/12 04:21:09;;;;;;;5.25;4.25;;;;;;;13.31;100.00;100231.69;6665110;26;34026;-89
2022/09/12 04:24:12;;;;;;;5.22;4.15;;;;;;;13.27;100.00;100231.22;6663310;26;33828;-88
2022/09/12 04:27:15;;;;;;;6.70;4.22;;;;;;;13.26;100.00;100232.28;6662986;26;34090;-88
2022/09/12 04:30:18;;;;;;;6.72;4.68;;;;;;;13.34;100.00;100239.41;6662950;26;35479;-88
2022/09/12 04:33:21;;;;;;;4.53;3.90;;;;;;;13.32;100.00;100234.16;6662940;26;34952;-88
2022/09/12 04:36:25;;;;;;;6.00;4.20;;;;;;;13.31;100.00;100235.22;6661924;26;34930;-88
2022/09/12 04:39:27;;;;;;;4.87;4.12;;;;;;;13.39;100.00;100236.91;6662173;26;34909;-88
2022/09/12 04:42:30;;;;;;;6.05;4.03;;;;;;;13.47;100.00;100233.22;6662572;26;34439;-88
2022/09/12 04:45:32;;;;;;;5.80;4.78;;;;;;;13.53;100.00;100230.53;6641717;26;33066;-87
2022/09/12 04:48:36;;;;;;;5.62;3.83;;;;;;;13.55;100.00;100230.34;6665348;26;34079;-88
2022/09/12 04:51:41;;;;;;;4.62;4.00;;;;;;;13.53;100.00;100229.69;6661459;26;34690;-87
2022/09/12 04:54:43;;;;;;;7.12;5.03;;;;;;;13.53;100.00;100230.53;6662170;26;34106;-87
2022/09/12 04:57:46;;;;;;;9.13;4.30;;;;;;;13.55;100.00;100238.47;6641433;26;33036;-88
2022/09/12 05:00:49;;;;;;;7.53;4.47;;;;;;;13.58;100.00;100235.34;6668182;26;34733;-87
2022/09/12 05:03:52;;;;;;;5.72;4.07;;;;;;;13.65;100.00;100240.78;6675323;26;34555;-87
2022/09/12 05:06:55;;;;;;;6.25;4.12;;;;;;;13.67;100.00;100242.25;6662409;26;34683;-88
2022/09/12 05:09:57;;;;;;;6.70;4.18;;;;;;;13.70;100.00;100235.62;6661868;26;35495;-87
2022/09/12 05:13:00;;;;;;;7.10;4.12;;;;;;;13.75;100.00;100247.50;6662015;26;34114;-88
2022/09/12 05:16:04;;;;;;;6.43;4.43;;;;;;;13.84;100.00;100237.34;6662013;26;34765;-87
2022/09/12 05:19:10;;;;;;;6.97;4.03;;;;;;;13.92;100.00;100239.84;6640933;26;33248;-87
2022/09/12 05:22:13;;;;;;;5.03;4.12;;;;;;;14.01;100.00;100241.34;6662301;26;33776;-88
2022/09/12 05:25:15;;;;;;;7.15;4.12;;;;;;;14.05;99.53;100249.91;6641137;26;33393;-88
2022/09/12 05:28:20;;;;;;;5.45;4.25;;;;;;;14.16;98.67;100246.59;6662143;26;34004;-87
2022/09/12 05:31:25;;;;;;;5.37;3.90;;;;;;;14.29;97.00;100251.19;6661762;26;34020;-86
2022/09/12 05:34:27;;;;;;;5.65;3.80;;;;;;;14.46;96.22;100260.59;6661688;26;34750;-85
2022/09/12 05:37:30;;;;;;;5.12;3.78;;;;;;;14.60;95.65;100275.03;6661840;26;33945;-85
2022/09/12 05:40:33;;;;;;;6.12;4.00;;;;;;;14.78;92.91;100276.31;6664478;26;34881;-85
2022/09/12 05:43:37;;;;;;;7.32;3.80;;;;;;;14.86;92.02;100281.50;6662761;26;33898;-85
2022/09/12 05:46:42;;;;;;;6.70;4.20;;;;;;;14.94;92.00;100275.88;6664025;26;33899;-84
2022/09/12 05:49:46;;;;;;;5.57;4.20;;;;;;;15.07;91.36;100273.16;6664832;26;35454;-84
2022/09/12 05:52:49;;;;;;;8.35;4.93;;;;;;;15.09;90.84;100281.06;6672226;26;34114;-85
2022/09/12 05:56:10;;;;;;;7.80;4.70;;;;;;;15.15;90.99;100278.38;6671188;26;34475;-84
2022/09/12 05:59:18;;;;;;;7.15;4.18;;;;;;;15.24;90.27;100275.44;6663242;26;33807;-84
2022/09/12 06:02:20;;;;;;;6.32;4.30;;;;;;;15.26;90.04;100278.78;6653489;26;32539;-88
2022/09/12 06:05:24;;;;;;;5.90;4.82;;;;;;;15.32;90.36;100281.47;6656772;26;34795;-86
2022/09/12 06:08:27;;;;;;;7.87;4.68;;;;;;;15.46;88.66;100286.88;6644026;26;34126;-89
2022/09/12 06:11:32;;;;;;;4.50;4.00;;;;;;;15.46;88.58;100287.72;6662364;26;34835;-86
2022/09/12 06:14:35;;;;;;;8.68;5.07;;;;;;;15.41;88.94;100282.06;6663400;26;34917;-85
2022/09/12 06:17:37;;;;;;;7.15;4.75;;;;;;;15.50;88.40;100282.69;6642897;26;33516;-85
2022/09/12 06:20:40;;;;;;;6.53;4.10;;;;;;;15.61;87.84;100280.16;6661982;26;35517;-86
2022/09/12 06:23:45;;;;;;;7.60;5.10;;;;;;;15.64;87.43;100281.59;6662739;26;34574;-86
2022/09/12 06:26:49;;;;;;;9.23;5.00;;;;;;;15.83;86.68;100283.47;6662007;26;35342;-85
2022/09/12 06:29:51;;;;;;;8.43;4.90;;;;;;;15.95;86.51;100282.78;6662096;26;34018;-85
2022/09/12 06:32:55;;;;;;;7.95;4.70;;;;;;;16.04;85.48;100286.94;6662133;26;33622;-85
2022/09/12 06:36:14;;;;;;;7.12;5.10;;;;;;;16.20;84.52;100289.13;6641964;26;33326;-85
2022/09/12 06:39:22;;;;;;;5.03;4.40;;;;;;;16.28;83.98;100288.06;6643276;26;32520;-84
2022/09/12 06:42:25;;;;;;;8.80;4.85;;;;;;;16.22;83.64;100288.94;6644135;26;32050;-85
2022/09/12 06:45:31;;;;;;;6.95;4.45;;;;;;;16.37;82.75;100294.91;6663458;26;33865;-85
2022/09/12 06:48:34;;;;;;;5.62;4.40;;;;;;;16.46;81.73;100292.75;6654376;26;32681;-86
2022/09/12 06:51:43;;;;;;;7.62;5.00;;;;;;;16.51;81.58;100296.47;6677976;26;35450;-85
2022/09/12 06:54:46;;;;;;;7.18;4.90;;;;;;;16.61;81.65;100297.87;6671221;26;35116;-84
2022/09/12 06:57:49;;;;;;;7.15;4.45;;;;;;;16.70;80.77;100294.69;6675106;26;34668;-85
2022/09/12 07:01:00;;;;;;;5.95;4.72;;;;;;;16.87;80.41;100286.03;6682056;26;34430;-85
2022/09/12 07:04:03;;;;;;;5.62;4.35;;;;;;;16.99;79.56;100284.22;6663105;26;33211;-85
2022/09/12 07:07:05;;;;;;;9.35;4.90;;;;;;;17.16;78.58;100281.78;6685006;26;37788;-84
2022/09/12 07:10:10;;;;;;;8.57;4.75;;;;;;;17.34;77.18;100281.81;6653530;26;33469;-85
2022/09/12 07:13:13;;;;;;;7.07;4.60;;;;;;;17.38;76.94;100288.50;6665486;26;33995;-84
2022/09/12 07:16:16;;;;;;;7.60;4.95;;;;;;;17.41;76.87;100295.38;6662047;26;33946;-84
2022/09/12 07:19:22;;;;;;;7.00;4.57;;;;;;;17.52;76.21;100300.09;6641373;26;32866;-84
2022/09/12 07:22:24;;;;;;;10.27;4.70;;;;;;;17.54;75.10;100291.69;6661563;26;33914;-84
2022/09/12 07:25:27;;;;;;;5.78;4.53;;;;;;;17.59;75.05;100297.28;6660859;26;33949;-84
2022/09/12 07:28:32;;;;;;;7.22;4.40;;;;;;;17.72;74.57;100297.13;6641110;26;32603;-84
2022/09/12 07:31:35;;;;;;;5.55;4.20;;;;;;;17.95;73.20;100298.37;6661354;26;34731;-84
2022/09/12 07:34:37;;;;;;;6.25;4.25;;;;;;;18.27;71.09;100296.28;6640262;26;32606;-84
2022/09/12 07:37:40;;;;;;;5.25;3.70;;;;;;;18.36;70.04;100301.16;6640815;26;32445;-85
2022/09/12 07:40:45;;;;;;;5.18;4.12;;;;;;;18.27;71.08;100305.28;6635228;26;137957;-84
2022/09/12 07:43:52;;;;;;;6.03;4.53;;;;;;;17.98;71.51;100308.81;6645425;26;32766;-84
2022/09/12 07:46:54;;;;;;;5.95;4.00;;;;;;;17.93;71.66;100312.22;6667859;26;33860;-85
2022/09/12 07:49:57;;;;;;;5.53;4.03;;;;;;;18.08;71.40;100309.94;6655395;26;33631;-88
2022/09/12 07:53:01;;;;;;;6.93;4.37;;;;;;;18.09;71.37;100311.59;6663360;26;34757;-89
2022/09/12 07:56:06;;;;;;;5.93;3.85;;;;;;;18.36;70.36;100312.06;6640696;26;32549;-89
2022/09/12 07:59:09;;;;;;;6.05;3.85;;;;;;;18.50;69.33;100304.53;6640100;26;33594;-85
2022/09/12 08:02:14;;;;;;;3.90;3.47;;;;;;;18.44;69.46;100307.38;6660769;26;35420;-85
2022/09/12 08:05:19;;;;;;;4.53;3.53;;;;;;;18.43;68.86;100294.78;6660157;26;34669;-84
2022/09/12 08:08:22;;;;;;;4.37;3.47;;;;;;;18.61;68.46;100302.94;6660886;26;34692;-85
2022/09/12 08:11:27;;;;;;;4.55;3.65;;;;;;;18.98;66.37;100306.38;6660584;26;34088;-85
2022/09/12 08:14:30;;;;;;;4.05;3.42;;;;;;;19.20;65.92;100300.31;6660875;26;33665;-85
2022/09/12 08:17:33;;;;;;;7.20;3.80;;;;;;;19.40;64.43;100302.72;6660657;26;34017;-85
2022/09/12 08:20:35;;;;;;;4.28;3.60;;;;;;;19.64;64.20;100298.88;6660927;26;34294;-85
2022/09/12 08:23:39;;;;;;;7.22;3.70;;;;;;;19.56;64.03;100298.41;6660369;26;35554;-85
2022/09/12 08:26:42;;;;;;;3.85;3.45;;;;;;;19.60;64.86;100300.44;6659886;26;35275;-85
2022/09/12 08:29:44;;;;;;;4.47;3.65;;;;;;;19.65;63.71;100300.56;6660478;26;34205;-85
2022/09/12 08:32:47;;;;;;;4.60;3.33;;;;;;;19.70;63.81;100297.94;6640209;26;32413;-84
2022/09/12 08:35:51;;;;;;;3.75;3.35;;;;;;;19.77;63.54;100294.25;6660383;26;34448;-85
2022/09/12 08:38:56;;;;;;;4.32;3.45;;;;;;;19.98;62.83;100298.25;6668475;26;33824;-85
2022/09/12 08:42:04;;;;;;;5.13;3.10;;;;;;;20.13;61.62;100296.66;6640796;26;33796;-85
2022/09/12 08:45:20;;;;;;;3.60;3.10;;;;;;;20.19;60.36;100294.03;6642099;26;33264;-84
2022/09/12 08:48:24;;;;;;;3.37;2.80;;;;;;;20.08;60.20;100288.34;6640154;26;33110;-85
2022/09/12 08:51:28;;;;;;;3.87;3.00;;;;;;;20.23;58.36;100290.56;6639990;26;32195;-85
2022/09/12 08:54:31;;;;;;;3.75;3.22;;;;;;;20.43;58.95;100290.12;6659754;26;35394;-85
2022/09/12 08:57:34;;;;;;;2.62;2.42;;;;;;;20.42;58.18;100285.75;6660213;26;34792;-85
2022/09/12 09:01:07;;;;;;;2.55;2.35;;;;;;;20.63;57.21;100286.97;6660198;26;34136;-85
2022/09/12 09:04:31;;;;;;;3.50;2.50;;;;;;;20.76;57.17;100285.81;6640391;26;33556;-84
2022/09/12 09:08:16;;;;;;;3.15;2.70;;;;;;;20.86;55.33;100287.91;6661655;26;34779;-84
2022/09/12 09:11:51;;;;;;;5.47;2.85;;;;;;;21.12;54.95;100278.19;6619819;26;33822;-85
2022/09/12 09:15:20;;;;;;;3.50;2.30;;;;;;;21.32;54.28;100283.12;6661771;26;33777;-85
2022/09/12 09:18:27;;;;;;;;;;;;;;;21.27;54.14;100278.44;6641757;26;32763;-85
2022/09/12 09:21:40;;;;;;;2.62;2.42;;;;;;;21.26;53.29;100280.34;6661594;26;34511;-84
2022/09/12 09:24:52;;;;;;;3.20;2.67;;;;;;;21.58;52.46;100289.84;6661728;26;33615;-85
2022/09/12 09:28:02;;;;;;;2.90;2.05;;;;;;;21.50;52.83;100277.44;6662042;26;34201;-85
2022/09/12 09:31:13;;;;;;;5.20;2.70;;;;;;;21.68;52.74;100273.56;6661871;26;34333;-85
2022/09/12 09:34:22;;;;;;;2.83;2.00;;;;;;;21.86;52.29;100277.91;6641728;26;35312;-84
2022/09/12 09:37:35;;;;;;;2.15;1.95;;;;;;;21.92;51.11;100274.97;6661159;26;33811;-85
2022/09/12 09:40:56;;;;;;;4.00;2.17;;;;;;;22.06;50.14;100272.66;6661788;26;33639;-89
2022/09/12 09:44:00;;;;;;;1.85;1.75;;;;;;;22.21;48.96;100274.78;6661587;26;34147;-85
2022/09/12 09:47:04;;;;;;;3.05;2.15;;;;;;;22.26;48.60;100283.06;6660536;26;35266;-85
2022/09/12 09:50:12;;;;;;;3.20;2.05;;;;;;;22.30;49.54;100277.91;6661053;26;34080;-84
2022/09/12 09:53:33;;;;;;;2.33;2.12;;;;;;;22.45;48.57;100269.81;6640493;26;32765;-85
2022/09/12 09:56:41;;;;;;;2.10;1.58;;;;;;;22.52;47.34;100267.72;6661113;26;33914;-85
2022/09/12 09:59:44;;;;;;;2.37;1.70;;;;;;;22.33;46.63;100275.44;6661190;26;34983;-85
2022/09/12 10:03:27;;;;;;;2.40;2.20;;;;;;;22.20;47.30;100273.12;6661388;26;34623;-85
2022/09/12 10:06:36;;;;;;;2.55;1.87;;;;;;;21.95;48.36;100273.63;6660819;26;34903;-85
2022/09/12 10:09:40;;;;;;;3.05;1.98;;;;;;;21.84;49.73;100280.06;6640659;26;33610;-85
2022/09/12 10:12:43;;;;;;;2.10;1.50;;;;;;;21.75;49.81;100265.97;6660418;26;34067;-85
2022/09/12 10:16:01;;;;;;;1.92;1.62;;;;;;;21.98;48.49;100275.84;6662354;26;34117;-84
2022/09/12 10:19:04;;;;;;;2.20;1.80;;;;;;;21.63;49.54;100273.50;6643115;26;32561;-85
2022/09/12 10:22:17;;;;;;;2.45;1.87;;;;;;;21.27;50.17;100275.69;6661262;26;33623;-84
2022/09/12 10:25:23;;;;;;;1.95;1.80;;;;;;;21.04;50.81;100277.53;6661219;26;33731;-85
2022/09/12 10:28:52;;;;;;;4.03;2.22;;;;;;;20.63;51.07;100284.22;6667831;26;33808;-88
2022/09/12 10:31:59;;;;;;;1.95;1.80;;;;;;;20.50;51.06;100279.84;6672116;26;33795;-85
2022/09/12 10:35:07;;;;;;;1.60;1.50;;;;;;;20.52;50.85;100274.16;6647363;26;35084;-85
2022/09/12 10:38:20;;;;;;;1.80;1.70;;;;;;;20.61;50.91;100284.47;6654261;26;33174;-85
2022/09/12 10:41:23;;;;;;;3.40;1.92;;;;;;;20.73;51.22;100278.91;6666376;26;34493;-85
2022/09/12 10:44:31;;;;;;;2.15;1.98;;;;;;;20.96;52.09;100274.37;6660980;26;33611;-85
2022/09/12 10:47:36;;;;;;;2.72;1.95;;;;;;;21.42;50.51;100265.00;6640003;26;33187;-84
2022/09/12 10:50:42;;;;;;;2.22;2.05;;;;;;;21.40;50.11;100267.13;6660357;26;33534;-85
2022/09/12 10:53:45;;;;;;;1.98;1.77;;;;;;;21.59;50.43;100269.59;6660577;26;35204;-84
2022/09/12 10:57:05;;;;;;;2.30;2.10;;;;;;;21.68;50.02;100262.59;6659920;26;33829;-85
2022/09/12 11:00:16;;;;;;;3.62;2.40;;;;;;;22.09;49.33;100263.09;6640020;26;32983;-85
2022/09/12 11:03:52;;;;;;;1.98;1.87;;;;;;;22.32;48.51;100262.00;6660655;26;34804;-85
2022/09/12 11:07:18;;;;;;;1.90;1.48;;;;;;;22.29;49.48;100252.38;6659862;26;34698;-85
2022/09/12 11:10:34;;;;;;;1.62;1.52;;;;;;;22.21;47.29;100258.31;6661132;26;33949;-89
2022/09/12 11:13:43;;;;;;;3.92;1.65;;;;;;;22.22;47.13;100259.16;6640573;26;32334;-85
2022/09/12 11:16:55;;;;;;;3.87;2.10;;;;;;;22.19;46.95;100253.09;6660930;26;35385;-85
2022/09/12 11:20:20;;;;;;;2.37;2.05;;;;;;;22.23;46.89;100244.34;6659674;26;34133;-85
2022/09/12 11:23:29;;;;;;;2.12;1.87;;;;;;;22.46;47.84;100240.47;6640144;26;32310;-85
2022/09/12 11:26:50;;;;;;;3.72;1.55;;;;;;;23.71;44.53;100235.34;6659751;26;34539;-85
2022/09/12 11:29:57;;;;;;;1.85;1.40;;;;;;;25.02;40.33;100232.28;6640487;26;33657;-85
2022/09/12 11:33:04;;;;;;;2.00;1.60;;;;;;;25.70;38.87;100229.06;6662723;26;34073;-85
2022/09/12 11:36:19;;;;;;;1.60;1.20;;;;;;;26.01;38.08;100238.06;6662088;26;34562;-85
2022/09/12 11:39:30;;;;;;;4.65;1.67;;;;;;;26.89;36.10;100239.12;6660585;26;34947;-85
2022/09/12 11:42:37;;;;;;;1.67;1.30;;;;;;;27.69;35.32;100237.75;6661506;26;36055;-85
2022/09/12 11:45:43;;;;;;;1.67;1.33;;;;;;;28.16;33.59;100236.06;6640550;26;32427;-85
2022/09/12 11:49:18;;;;;;;1.65;1.55;;;;;;;26.76;35.75;100237.03;6661382;26;35259;-85
2022/09/12 11:52:25;;;;;;;3.30;1.87;;;;;;;24.87;38.70;100232.28;6645709;26;34815;-86
2022/09/12 11:55:38;;;;;;;2.90;1.87;;;;;;;23.48;42.56;100249.50;6641066;26;32218;-85
2022/09/12 11:58:45;;;;;;;1.55;1.42;;;;;;;22.77;44.55;100242.38;6661183;26;34893;-85
2022/09/12 12:01:51;;;;;;;1.52;1.42;;;;;;;21.70;46.90;100246.72;6661322;26;34303;-85
2022/09/12 12:05:16;;;;;;;3.87;1.83;;;;;;;21.57;47.86;100245.19;6661086;26;34089;-85
2022/09/12 12:08:24;;;;;;;2.42;1.87;;;;;;;21.32;48.94;100245.62;6640351;26;32761;-85
2022/09/12 12:11:31;;;;;;;2.20;2.00;;;;;;;21.13;49.64;100236.87;6660442;26;34027;-85
2022/09/12 12:14:54;;;;;;;1.62;1.52;;;;;;;21.26;50.68;100250.22;6660940;26;33453;-85
2022/09/12 12:18:14;;;;;;;1.67;1.58;;;;;;;21.46;48.75;100246.97;6640461;26;33303;-85
2022/09/12 12:21:27;;;;;;;3.22;1.65;;;;;;;21.96;47.81;100234.97;6661043;26;33888;-85
2022/09/12 12:24:32;;;;;;;2.12;2.00;;;;;;;23.73;43.58;100230.41;6640848;26;34101;-83
2022/09/12 12:27:50;;;;;;;2.08;1.70;;;;;;;24.06;43.16;100224.75;6640012;26;32325;-84
2022/09/12 12:30:52;;;;;;;6.20;2.50;;;;;;;23.45;44.13;100225.28;6660588;26;35275;-88
2022/09/12 12:34:02;;;;;;;2.10;1.80;;;;;;;22.99;46.02;100220.37;6639915;26;32288;-89
2022/09/12 12:37:20;;;;;;;3.03;1.77;;;;;;;23.22;44.53;100218.28;6663207;26;34636;-89
2022/09/12 12:40:26;;;;;;;2.37;1.70;;;;;;;23.43;43.72;100220.09;6640607;26;33011;-85
2022/09/12 12:43:30;;;;;;;2.05;1.83;;;;;;;23.47;43.32;100220.37;6661798;26;34486;-85
2022/09/12 12:46:37;;;;;;;1.62;1.52;;;;;;;22.92;44.36;100221.62;6661732;26;33842;-85
2022/09/12 12:49:40;;;;;;;1.95;1.85;;;;;;;22.80;45.36;100221.81;6661549;26;34103;-85
2022/09/12 12:52:54;;;;;;;3.60;1.80;;;;;;;23.28;44.43;100223.56;6640453;26;32359;-85
2022/09/12 12:55:57;;;;;;;2.25;1.08;;;;;;;25.44;39.78;100225.59;6640810;26;33508;-84
2022/09/12 12:59:03;;;;;;;1.75;1.33;;;;;;;28.53;33.43;100203.97;6661451;26;33526;-85
2022/09/12 13:02:19;;;;;;;1.67;1.12;;;;;;;30.86;29.99;100206.94;6641165;26;33354;-84
2022/09/12 13:05:25;;;;;;;1.58;1.37;;;;;;;30.27;29.83;100204.19;6641136;26;32176;-84
2022/09/12 13:08:32;;;;;;;4.10;1.55;;;;;;;26.97;35.09;100217.50;6662534;26;33651;-84
2022/09/12 13:11:38;;;;;;;1.37;1.27;;;;;;;25.54;38.89;100220.06;6676599;26;34300;-84
2022/09/12 13:14:50;;;;;;;1.33;1.23;;;;;;;26.72;37.55;100219.41;6666253;26;33937;-85
2022/09/12 13:18:00;;;;;;;1.02;1.02;;;;;;;27.62;34.78;100222.66;6661575;26;35213;-85
2022/09/12 13:21:18;;;;;;;2.28;1.37;;;;;;;26.98;35.28;100219.16;6661995;26;34974;-85
2022/09/12 13:24:22;;;;;;;2.80;1.02;;;;;;;26.28;36.21;100216.66;6661662;26;34179;-85
2022/09/12 13:27:25;;;;;;;1.35;1.25;;;;;;;27.92;34.01;100199.31;6662001;26;33957;-84
2022/09/12 13:30:31;;;;;;;1.12;1.10;;;;;;;29.81;30.37;100198.84;6641235;26;33844;-85
2022/09/12 13:33:47;;;;;;;1.42;1.33;;;;;;;29.98;29.77;100199.00;6641048;26;32595;-84
2022/09/12 13:37:11;;;;;;;1.40;1.30;;;;;;;30.19;29.66;100195.75;6661529;26;33881;-85
2022/09/12 13:40:44;;;;;;;2.08;1.10;;;;;;;32.41;26.73;100188.22;6661775;26;35234;-84
2022/09/12 13:43:48;;;;;;;1.55;1.40;;;;;;;31.64;26.71;100189.75;6662257;26;34476;-85
2022/09/12 13:46:52;;;;;;;1.58;1.35;;;;;;;29.12;30.56;100182.16;6641522;26;33405;-85
2022/09/12 13:49:55;;;;;;;1.55;1.10;;;;;;;28.11;32.42;100185.47;6661299;26;33873;-85
2022/09/12 13:53:03;;;;;;;1.80;1.02;;;;;;;29.29;29.84;100182.38;6641027;26;32596;-85
2022/09/12 13:56:05;;;;;;;1.23;1.00;;;;;;;30.49;28.42;100174.78;6640633;26;32807;-84
2022/09/12 13:59:12;;;;;;;1.15;0.90;;;;;;;30.84;27.06;100173.06;6640903;26;32944;-85
2022/09/12 14:02:19;;;;;;;2.53;1.20;;;;;;;30.77;26.64;100169.03;6661345;26;33866;-85
2022/09/12 14:05:25;;;;;;;0.98;0.90;;;;;;;30.53;27.14;100167.44;6639997;26;32677;-85
2022/09/12 14:08:28;;;;;;;3.85;0.60;;;;;;;30.03;26.92;100165.53;6661256;26;34894;-84
2022/09/12 14:11:32;;;;;;;1.62;0.62;;;;;;;28.33;28.44;100169.09;6641442;26;32317;-85
2022/09/12 14:14:40;;;;;;;1.12;0.82;;;;;;;27.35;29.59;100166.03;6640962;26;33691;-85
2022/09/12 14:17:50;;;;;;;1.15;0.82;;;;;;;26.57;31.10;100164.31;6640969;26;33412;-86
2022/09/12 14:20:56;;;;;;;1.45;0.80;;;;;;;25.94;31.85;100154.78;6670685;26;34039;-87
2022/09/12 14:24:00;;;;;;;0.88;0.60;;;;;;;25.16;33.39;100168.38;6653242;26;33826;-87
2022/09/12 14:27:03;;;;;;;1.15;0.90;;;;;;;24.62;33.91;100159.59;6643332;26;32668;-87
2022/09/12 14:30:38;;;;;;;2.45;1.12;;;;;;;24.47;34.44;100170.62;6662323;26;33635;-87
2022/09/12 14:33:49;;;;;;;1.85;1.10;;;;;;;24.27;34.78;100165.09;6662664;26;34037;-88
2022/09/12 14:36:55;;;;;;;0.70;0.70;;;;;;;24.17;35.04;100165.91;6662618;26;34129;-88
2022/09/12 14:39:57;;;;;;;0.80;0.80;;;;;;;23.73;35.64;100156.19;6662841;26;33519;-87
2022/09/12 14:43:01;;;;;;;2.28;1.00;;;;;;;23.30;36.24;100169.16;6643410;26;32834;-88
2022/09/12 14:46:29;;;;;;;1.02;1.00;;;;;;;23.08;36.62;100171.28;6643103;26;32361;-87
2022/09/12 14:49:35;;;;;;;1.40;1.30;;;;;;;22.65;37.44;100167.66;6642527;26;32422;-87
2022/09/12 14:52:38;;;;;;;2.95;0.95;;;;;;;22.58;37.80;100169.78;6651018;26;32518;-87
2022/09/12 14:55:46;;;;;;;0.90;0.90;;;;;;;22.44;37.44;100177.62;6661621;26;34015;-87
2022/09/12 14:58:49;;;;;;;2.47;1.10;;;;;;;22.15;37.28;100177.06;6641619;26;33478;-87
2022/09/12 15:02:20;;;;;;;1.85;1.00;;;;;;;21.99;38.25;100167.03;6665701;26;33966;-89
2022/09/12 15:05:25;;;;;;;0.98;0.88;;;;;;;21.91;38.32;100169.16;6642686;26;32825;-88
2022/09/12 15:08:30;;;;;;;1.65;0.75;;;;;;;21.83;38.56;100164.12;6662531;26;33941;-88
2022/09/12 15:11:32;;;;;;;1.45;1.00;;;;;;;21.68;39.04;100170.25;6641798;26;33440;-88
2022/09/12 15:14:35;;;;;;;1.20;1.10;;;;;;;21.51;39.11;100162.13;6644000;26;33254;-88
2022/09/12 15:17:38;;;;;;;2.37;1.02;;;;;;;21.32;40.22;100166.22;6662877;26;34221;-88
2022/09/12 15:20:43;;;;;;;1.12;1.00;;;;;;;21.17;40.55;100155.87;6662894;26;33739;-88
2022/09/12 15:23:48;;;;;;;0.80;0.80;;;;;;;21.10;41.07;100166.19;6665406;26;34120;-88
2022/09/12 15:26:52;;;;;;;1.60;1.17;;;;;;;20.93;41.31;100163.50;6667216;26;33967;-88
2022/09/12 15:29:55;;;;;;;0.80;0.70;;;;;;;20.88;41.65;100177.09;6647228;26;33139;-88
2022/09/12 15:32:58;;;;;;;2.08;1.27;;;;;;;20.81;42.07;100174.53;6662585;26;33758;-88
2022/09/12 15:36:01;;;;;;;2.45;1.00;;;;;;;20.74;42.77;100165.69;6641944;26;32649;-88
2022/09/12 15:39:04;;;;;;;2.55;1.00;;;;;;;20.71;42.73;100163.47;6662518;26;34798;-88
2022/09/12 15:42:10;;;;;;;1.25;1.10;;;;;;;20.69;42.72;100164.78;6642461;26;32954;-88
2022/09/12 15:45:18;;;;;;;0.90;0.90;;;;;;;20.58;43.00;100158.31;6664218;26;34902;-91
2022/09/12 15:48:21;;;;;;;2.45;0.93;;;;;;;20.56;42.58;100155.84;6669500;26;36535;-92
2022/09/12 15:51:32;;;;;;;1.30;1.02;;;;;;;20.50;42.60;100162.25;6645911;26;32191;31
2022/09/12 15:54:35;;;;;;;1.05;1.02;;;;;;;20.43;42.79;100164.34;6551004;27;33906;-88
2022/09/12 15:57:39;;;;;;;1.10;1.00;;;;;;;20.38;42.67;100156.03;6554004;27;34256;-89
